Terminal Aerodrome Forecast
Issued by NWS

Home | Current Version | Previous Version | Graphics & Text | Print | Product List | Glossary Off
Versions: 1 2 3 4 5 6 7 8 9 10 11 12 13 14 15 16 17 18 19 20 21 22 23 24 25 26 27 28 29 30 31

000
FTUS43 KDDC 290523
TAFGCK
TAF
KGCK 290523Z 2906/3006 03018G30KT P6SM OVC003
     FM291000 02019G32KT 3SM -SHRA BR OVC003
      TEMPO 2918/2921 1 1/2SM -SHRA BR OVC008
     FM292300 36023KT 3SM -SHRA BR OVC010=

USA.gov is the U.S. government's official web portal to all federal, state and local government web resources and services.